sensor_id;sensor_type;location;lat;lon;timestamp;temperature;humidity
23149;DHT22;11743;51.228;22.498;2022-08-01T00:00:07;17.50;99.90
23149;DHT22;11743;51.228;22.498;2022-08-01T00:00:31;17.40;99.90
23149;DHT22;11743;51.228;22.498;2022-08-01T00:00:53;17.40;99.90
23149;DHT22;11743;51.228;22.498;2022-08-01T00:01:15;17.40;99.90
23149;DHT22;11743;51.228;22.498;2022-08-01T00:01:37;17.40;99.90
23149;DHT22;11743;51.228;22.498;2022-08-01T00:01:59;17.40;99.90
23149;DHT22;11743;51.228;22.498;2022-08-01T00:02:21;17.40;99.90
23149;DHT22;11743;51.228;22.498;2022-08-01T00:02:43;17.40;99.90
23149;DHT22;11743;51.228;22.498;2022-08-01T00:03:05;17.40;99.90
23149;DHT22;11743;51.228;22.498;2022-08-01T00:03:27;17.40;99.90
23149;DHT22;11743;51.228;22.498;2022-08-01T00:03:49;17.40;99.90
23149;DHT22;11743;51.228;22.498;2022-08-01T00:04:11;17.40;99.90
23149;DHT22;11743;51.228;22.498;2022-08-01T00:04:33;17.40;99.90
23149;DHT22;11743;51.228;22.498;2022-08-01T00:04:54;17.00;99.90
23149;DHT22;11743;51.228;22.498;2022-08-01T00:05:17;17.30;99.90
23149;DHT22;11743;51.228;22.498;2022-08-01T00:05:38;17.40;99.90
23149;DHT22;11743;51.228;22.498;2022-08-01T00:06:01;17.40;99.90
23149;DHT22;11743;51.228;22.498;2022-08-01T00:06:23;17.40;99.90
23149;DHT22;11743;51.228;22.498;2022-08-01T00:06:45;17.40;99.90
23149;DHT22;11743;51.228;22.498;2022-08-01T00:07:07;17.40;99.90
23149;DHT22;11743;51.228;22.498;2022-08-01T00:07:29;17.40;99.90
23149;DHT22;11743;51.228;22.498;2022-08-01T00:07:51;17.40;99.90
23149;DHT22;11743;51.228;22.498;2022-08-01T00:08:13;17.40;99.90
23149;DHT22;11743;51.228;22.498;2022-08-01T00:08:35;17.40;99.90
23149;DHT22;11743;51.228;22.498;2022-08-01T00:08:57;17.40;99.90
23149;DHT22;11743;51.228;22.498;2022-08-01T00:09:19;17.40;99.90
23149;DHT22;11743;51.228;22.498;2022-08-01T00:09:45;17.40;99.90
23149;DHT22;11743;51.228;22.498;2022-08-01T00:10:12;17.40;99.90
23149;DHT22;11743;51.228;22.498;2022-08-01T00:10:34;17.40;99.90
23149;DHT22;11743;51.228;22.498;2022-08-01T00:10:57;17.30;99.90
23149;DHT22;11743;51.228;22.498;2022-08-01T00:11:23;17.30;99.90
23149;DHT22;11743;51.228;22.498;2022-08-01T00:11:45;17.30;99.90
23149;DHT22;11743;51.228;22.498;2022-08-01T00:12:20;17.30;99.90
23149;DHT22;11743;51.228;22.498;2022-08-01T00:12:42;17.30;99.90
23149;DHT22;11743;51.228;22.498;2022-08-01T00:13:04;17.30;99.90
23149;DHT22;11743;51.228;22.498;2022-08-01T00:13:26;17.30;99.90
23149;DHT22;11743;51.228;22.498;2022-08-01T00:13:48;17.30;99.90
23149;DHT22;11743;51.228;22.498;2022-08-01T00:14:10;17.30;99.90
23149;DHT22;11743;51.228;22.498;2022-08-01T00:14:31;17.30;99.90
23149;DHT22;11743;51.228;22.498;2022-08-01T00:14:53;17.30;99.90
23149;DHT22;11743;51.228;22.498;2022-08-01T00:15:16;17.30;99.90
23149;DHT22;11743;51.228;22.498;2022-08-01T00:15:38;17.20;99.90
23149;DHT22;11743;51.228;22.498;2022-08-01T00:16:00;17.30;99.90
23149;DHT22;11743;51.228;22.498;2022-08-01T00:16:22;17.30;99.90
23149;DHT22;11743;51.228;22.498;2022-08-01T00:16:44;17.30;99.90
23149;DHT22;11743;51.228;22.498;2022-08-01T00:17:06;17.30;99.90
23149;DHT22;11743;51.228;22.498;2022-08-01T00:17:28;17.30;99.90
23149;DHT22;11743;51.228;22.498;2022-08-01T00:17:50;17.30;99.90
23149;DHT22;11743;51.228;22.498;2022-08-01T00:18:11;17.20;99.90
23149;DHT22;11743;51.228;22.498;2022-08-01T00:18:34;17.30;99.90
23149;DHT22;11743;51.228;22.498;2022-08-01T00:18:57;17.20;99.90
23149;DHT22;11743;51.228;22.498;2022-08-01T00:19:19;17.20;99.90
23149;DHT22;11743;51.228;22.498;2022-08-01T00:19:41;17.20;99.90
23149;DHT22;11743;51.228;22.498;2022-08-01T00:20:05;17.20;99.90
23149;DHT22;11743;51.228;22.498;2022-08-01T00:20:28;17.20;99.90
23149;DHT22;11743;51.228;22.498;2022-08-01T00:20:50;17.10;99.90
23149;DHT22;11743;51.228;22.498;2022-08-01T00:21:12;17.10;99.90
23149;DHT22;11743;51.228;22.498;2022-08-01T00:21:34;17.10;99.90
23149;DHT22;11743;51.228;22.498;2022-08-01T00:21:56;17.10;99.90
23149;DHT22;11743;51.228;22.498;2022-08-01T00:22:17;17.10;99.90
23149;DHT22;11743;51.228;22.498;2022-08-01T00:22:41;17.10;99.90
23149;DHT22;11743;51.228;22.498;2022-08-01T00:23:03;17.10;99.90
23149;DHT22;11743;51.228;22.498;2022-08-01T00:23:25;17.10;99.90
23149;DHT22;11743;51.228;22.498;2022-08-01T00:23:47;17.10;99.90
23149;DHT22;11743;51.228;22.498;2022-08-01T00:24:09;17.10;99.90
23149;DHT22;11743;51.228;22.498;2022-08-01T00:24:36;17.10;99.90
23149;DHT22;11743;51.228;22.498;2022-08-01T00:24:59;17.10;99.90
23149;DHT22;11743;51.228;22.498;2022-08-01T00:25:21;17.10;99.90
23149;DHT22;11743;51.228;22.498;2022-08-01T00:25:55;17.20;99.90
23149;DHT22;11743;51.228;22.498;2022-08-01T00:26:16;17.10;99.90
23149;DHT22;11743;51.228;22.498;2022-08-01T00:26:38;17.10;99.90
23149;DHT22;11743;51.228;22.498;2022-08-01T00:27:00;17.10;99.90
23149;DHT22;11743;51.228;22.498;2022-08-01T00:27:22;17.10;99.90
23149;DHT22;11743;51.228;22.498;2022-08-01T00:27:44;17.10;99.90
23149;DHT22;11743;51.228;22.498;2022-08-01T00:28:08;17.10;99.90
23149;DHT22;11743;51.228;22.498;2022-08-01T00:28:31;17.10;99.90
23149;DHT22;11743;51.228;22.498;2022-08-01T00:28:53;17.10;99.90
23149;DHT22;11743;51.228;22.498;2022-08-01T00:29:15;17.10;99.90
23149;DHT22;11743;51.228;22.498;2022-08-01T00:29:57;17.10;99.90
23149;DHT22;11743;51.228;22.498;2022-08-01T00:30:35;17.00;99.90
23149;DHT22;11743;51.228;22.498;2022-08-01T00:30:57;17.00;99.90
23149;DHT22;11743;51.228;22.498;2022-08-01T00:31:19;17.00;99.90
23149;DHT22;11743;51.228;22.498;2022-08-01T00:31:42;17.00;99.90
23149;DHT22;11743;51.228;22.498;2022-08-01T00:32:04;17.00;99.90
23149;DHT22;11743;51.228;22.498;2022-08-01T00:32:26;17.00;99.90
23149;DHT22;11743;51.228;22.498;2022-08-01T00:32:48;17.00;99.90
23149;DHT22;11743;51.228;22.498;2022-08-01T00:33:10;17.00;99.90
23149;DHT22;11743;51.228;22.498;2022-08-01T00:33:32;17.00;99.90
23149;DHT22;11743;51.228;22.498;2022-08-01T00:33:54;17.00;99.90
23149;DHT22;11743;51.228;22.498;2022-08-01T00:34:16;17.00;99.90
23149;DHT22;11743;51.228;22.498;2022-08-01T00:34:38;17.00;99.90
23149;DHT22;11743;51.228;22.498;2022-08-01T00:35:00;17.00;99.90
23149;DHT22;11743;51.228;22.498;2022-08-01T00:35:22;17.00;99.90
23149;DHT22;11743;51.228;22.498;2022-08-01T00:35:44;17.00;99.90
23149;DHT22;11743;51.228;22.498;2022-08-01T00:36:06;17.00;99.90
23149;DHT22;11743;51.228;22.498;2022-08-01T00:36:28;17.00;99.90
23149;DHT22;11743;51.228;22.498;2022-08-01T00:36:50;17.00;99.90
23149;DHT22;11743;51.228;22.498;2022-08-01T00:37:12;17.00;99.90
23149;DHT22;11743;51.228;22.498;2022-08-01T00:37:36;17.00;99.90
23149;DHT22;11743;51.228;22.498;2022-08-01T00:37:58;17.00;99.90
23149;DHT22;11743;51.228;22.498;2022-08-01T00:38:20;16.90;99.90
23149;DHT22;11743;51.228;22.498;2022-08-01T00:38:42;16.90;99.90
23149;DHT22;11743;51.228;22.498;2022-08-01T00:39:05;16.90;99.90
23149;DHT22;11743;51.228;22.498;2022-08-01T00:39:27;16.90;99.90
23149;DHT22;11743;51.228;22.498;2022-08-01T00:39:49;16.90;99.90
23149;DHT22;11743;51.228;22.498;2022-08-01T00:40:11;16.90;99.90
23149;DHT22;11743;51.228;22.498;2022-08-01T00:40:33;16.90;99.90
23149;DHT22;11743;51.228;22.498;2022-08-01T00:40:55;16.90;99.90
23149;DHT22;11743;51.228;22.498;2022-08-01T00:41:16;16.70;99.90
23149;DHT22;11743;51.228;22.498;2022-08-01T00:41:39;16.90;99.90
23149;DHT22;11743;51.228;22.498;2022-08-01T00:42:06;16.90;99.90
23149;DHT22;11743;51.228;22.498;2022-08-01T00:42:29;16.90;99.90
23149;DHT22;11743;51.228;22.498;2022-08-01T00:42:51;16.90;99.90
23149;DHT22;11743;51.228;22.498;2022-08-01T00:43:13;16.90;99.90
23149;DHT22;11743;51.228;22.498;2022-08-01T00:43:35;16.90;99.90
23149;DHT22;11743;51.228;22.498;2022-08-01T00:43:56;16.90;99.90
23149;DHT22;11743;51.228;22.498;2022-08-01T00:44:18;16.90;99.90
23149;DHT22;11743;51.228;22.498;2022-08-01T00:44:40;16.90;99.90
23149;DHT22;11743;51.228;22.498;2022-08-01T00:45:03;16.90;99.90
23149;DHT22;11743;51.228;22.498;2022-08-01T00:45:26;16.90;99.90
23149;DHT22;11743;51.228;22.498;2022-08-01T00:45:48;16.90;99.90
23149;DHT22;11743;51.228;22.498;2022-08-01T00:46:10;16.90;99.90
23149;DHT22;11743;51.228;22.498;2022-08-01T00:46:33;16.90;99.90
23149;DHT22;11743;51.228;22.498;2022-08-01T00:46:55;16.90;99.90
23149;DHT22;11743;51.228;22.498;2022-08-01T00:47:17;16.90;99.90
23149;DHT22;11743;51.228;22.498;2022-08-01T00:47:39;16.80;99.90
23149;DHT22;11743;51.228;22.498;2022-08-01T00:48:01;16.80;99.90
23149;DHT22;11743;51.228;22.498;2022-08-01T00:48:23;16.80;99.90
23149;DHT22;11743;51.228;22.498;2022-08-01T00:48:45;16.90;99.90
23149;DHT22;11743;51.228;22.498;2022-08-01T00:49:07;16.90;99.90
23149;DHT22;11743;51.228;22.498;2022-08-01T00:49:31;16.80;99.90
23149;DHT22;11743;51.228;22.498;2022-08-01T00:49:54;16.80;99.90
23149;DHT22;11743;51.228;22.498;2022-08-01T00:50:16;16.90;99.90
23149;DHT22;11743;51.228;22.498;2022-08-01T00:50:38;16.80;99.90
23149;DHT22;11743;51.228;22.498;2022-08-01T00:51:00;16.80;99.90
23149;DHT22;11743;51.228;22.498;2022-08-01T00:51:22;16.90;99.90
23149;DHT22;11743;51.228;22.498;2022-08-01T00:51:45;16.90;99.90
23149;DHT22;11743;51.228;22.498;2022-08-01T00:52:08;16.80;99.90
23149;DHT22;11743;51.228;22.498;2022-08-01T00:52:31;16.80;99.90
23149;DHT22;11743;51.228;22.498;2022-08-01T00:52:54;16.90;99.90
23149;DHT22;11743;51.228;22.498;2022-08-01T00:53:16;16.80;99.90
23149;DHT22;11743;51.228;22.498;2022-08-01T00:53:39;16.80;99.90
23149;DHT22;11743;51.228;22.498;2022-08-01T00:54:12;16.80;99.90
23149;DHT22;11743;51.228;22.498;2022-08-01T00:54:37;16.80;99.90
23149;DHT22;11743;51.228;22.498;2022-08-01T00:55:03;16.80;99.90
23149;DHT22;11743;51.228;22.498;2022-08-01T00:55:26;16.80;99.90
23149;DHT22;11743;51.228;22.498;2022-08-01T00:55:48;16.80;99.90
23149;DHT22;11743;51.228;22.498;2022-08-01T00:56:10;16.80;99.90
23149;DHT22;11743;51.228;22.498;2022-08-01T00:56:32;16.70;99.90
23149;DHT22;11743;51.228;22.498;2022-08-01T00:56:55;16.70;99.90
23149;DHT22;11743;51.228;22.498;2022-08-01T00:57:17;16.80;99.90
23149;DHT22;11743;51.228;22.498;2022-08-01T00:57:59;16.70;99.90
23149;DHT22;11743;51.228;22.498;2022-08-01T00:58:27;16.80;99.90
23149;DHT22;11743;51.228;22.498;2022-08-01T00:58:55;16.70;99.90
23149;DHT22;11743;51.228;22.498;2022-08-01T00:59:21;16.70;99.90
23149;DHT22;11743;51.228;22.498;2022-08-01T00:59:43;16.70;99.90
23149;DHT22;11743;51.228;22.498;2022-08-01T01:00:09;16.70;99.90
23149;DHT22;11743;51.228;22.498;2022-08-01T01:00:31;16.70;99.90
23149;DHT22;11743;51.228;22.498;2022-08-01T01:01:14;16.70;99.90
23149;DHT22;11743;51.228;22.498;2022-08-01T01:01:36;16.70;99.90
23149;DHT22;11743;51.228;22.498;2022-08-01T01:02:00;16.70;99.90
23149;DHT22;11743;51.228;22.498;2022-08-01T01:02:22;16.60;99.90
23149;DHT22;11743;51.228;22.498;2022-08-01T01:02:44;16.60;99.90
23149;DHT22;11743;51.228;22.498;2022-08-01T01:03:06;16.60;99.90
23149;DHT22;11743;51.228;22.498;2022-08-01T01:03:28;16.60;99.90
23149;DHT22;11743;51.228;22.498;2022-08-01T01:04:10;16.60;99.90
23149;DHT22;11743;51.228;22.498;2022-08-01T01:04:32;16.60;99.90
23149;DHT22;11743;51.228;22.498;2022-08-01T01:04:54;16.60;99.90
23149;DHT22;11743;51.228;22.498;2022-08-01T01:05:15;16.60;99.90
23149;DHT22;11743;51.228;22.498;2022-08-01T01:06:46;16.60;99.90
23149;DHT22;11743;51.228;22.498;2022-08-01T01:07:19;16.60;99.90
23149;DHT22;11743;51.228;22.498;2022-08-01T01:09:12;16.60;99.90
23149;DHT22;11743;51.228;22.498;2022-08-01T01:09:51;16.60;99.90
23149;DHT22;11743;51.228;22.498;2022-08-01T01:10:25;16.60;99.90
23149;DHT22;11743;51.228;22.498;2022-08-01T01:11:04;16.60;99.90
23149;DHT22;11743;51.228;22.498;2022-08-01T01:11:34;16.60;99.90
23149;DHT22;11743;51.228;22.498;2022-08-01T01:12:22;16.60;99.90
23149;DHT22;11743;51.228;22.498;2022-08-01T01:12:50;16.70;99.90
23149;DHT22;11743;51.228;22.498;2022-08-01T01:13:53;16.60;99.90
23149;DHT22;11743;51.228;22.498;2022-08-01T01:14:44;16.70;99.90
23149;DHT22;11743;51.228;22.498;2022-08-01T01:15:21;16.70;99.90
23149;DHT22;11743;51.228;22.498;2022-08-01T01:15:47;16.70;99.90
23149;DHT22;11743;51.228;22.498;2022-08-01T01:16:15;16.70;99.90
23149;DHT22;11743;51.228;22.498;2022-08-01T01:16:41;16.70;99.90
23149;DHT22;11743;51.228;22.498;2022-08-01T01:17:07;16.70;99.90
23149;DHT22;11743;51.228;22.498;2022-08-01T01:17:39;16.70;99.90
23149;DHT22;11743;51.228;22.498;2022-08-01T01:18:25;16.70;99.90
23149;DHT22;11743;51.228;22.498;2022-08-01T01:18:55;16.70;99.90
23149;DHT22;11743;51.228;22.498;2022-08-01T01:19:24;16.70;99.90
23149;DHT22;11743;51.228;22.498;2022-08-01T01:19:51;16.70;99.90
23149;DHT22;11743;51.228;22.498;2022-08-01T01:20:16;16.70;99.90
23149;DHT22;11743;51.228;22.498;2022-08-01T01:20:44;16.70;99.90
23149;DHT22;11743;51.228;22.498;2022-08-01T01:25:09;16.70;99.90
23149;DHT22;11743;51.228;22.498;2022-08-01T01:27:42;16.70;99.90
23149;DHT22;11743;51.228;22.498;2022-08-01T01:29:21;16.70;99.90
23149;DHT22;11743;51.228;22.498;2022-08-01T01:29:40;16.60;99.90
23149;DHT22;11743;51.228;22.498;2022-08-01T01:30:24;16.70;99.90
23149;DHT22;11743;51.228;22.498;2022-08-01T01:30:51;16.70;99.90
23149;DHT22;11743;51.228;22.498;2022-08-01T01:31:16;16.70;99.90
23149;DHT22;11743;51.228;22.498;2022-08-01T01:31:48;16.60;99.90
23149;DHT22;11743;51.228;22.498;2022-08-01T01:32:26;16.60;99.90
23149;DHT22;11743;51.228;22.498;2022-08-01T01:32:53;16.60;99.90
23149;DHT22;11743;51.228;22.498;2022-08-01T01:33:16;16.70;99.90
23149;DHT22;11743;51.228;22.498;2022-08-01T01:33:40;16.70;99.90
23149;DHT22;11743;51.228;22.498;2022-08-01T01:34:09;16.70;99.90
23149;DHT22;11743;51.228;22.498;2022-08-01T01:34:37;16.70;99.90
23149;DHT22;11743;51.228;22.498;2022-08-01T01:35:03;16.60;99.90
23149;DHT22;11743;51.228;22.498;2022-08-01T01:35:31;16.60;99.90
23149;DHT22;11743;51.228;22.498;2022-08-01T01:36:03;16.60;99.90
23149;DHT22;11743;51.228;22.498;2022-08-01T01:36:32;16.60;99.90
23149;DHT22;11743;51.228;22.498;2022-08-01T01:36:56;16.60;99.90
23149;DHT22;11743;51.228;22.498;2022-08-01T01:37:22;16.60;99.90
23149;DHT22;11743;51.228;22.498;2022-08-01T01:37:46;16.60;99.90
23149;DHT22;11743;51.228;22.498;2022-08-01T01:38:18;16.50;99.90
23149;DHT22;11743;51.228;22.498;2022-08-01T01:38:43;16.60;99.90
23149;DHT22;11743;51.228;22.498;2022-08-01T01:39:06;16.60;99.90
23149;DHT22;11743;51.228;22.498;2022-08-01T01:39:29;16.60;99.90
23149;DHT22;11743;51.228;22.498;2022-08-01T01:39:52;16.50;99.90
23149;DHT22;11743;51.228;22.498;2022-08-01T01:40:16;16.60;99.90
23149;DHT22;11743;51.228;22.498;2022-08-01T01:40:39;16.60;99.90
23149;DHT22;11743;51.228;22.498;2022-08-01T01:41:03;16.60;99.90
23149;DHT22;11743;51.228;22.498;2022-08-01T01:41:28;16.50;99.90
23149;DHT22;11743;51.228;22.498;2022-08-01T01:41:51;16.60;99.90
23149;DHT22;11743;51.228;22.498;2022-08-01T01:42:15;16.60;99.90
23149;DHT22;11743;51.228;22.498;2022-08-01T01:42:38;16.60;99.90
23149;DHT22;11743;51.228;22.498;2022-08-01T01:43:01;16.60;99.90
23149;DHT22;11743;51.228;22.498;2022-08-01T01:43:23;16.60;99.90
23149;DHT22;11743;51.228;22.498;2022-08-01T01:43:54;16.50;99.90
23149;DHT22;11743;51.228;22.498;2022-08-01T01:44:18;16.50;99.90
23149;DHT22;11743;51.228;22.498;2022-08-01T01:44:41;16.50;99.90
23149;DHT22;11743;51.228;22.498;2022-08-01T01:45:05;16.50;99.90
23149;DHT22;11743;51.228;22.498;2022-08-01T01:45:28;16.50;99.90
23149;DHT22;11743;51.228;22.498;2022-08-01T01:45:51;16.50;99.90
23149;DHT22;11743;51.228;22.498;2022-08-01T01:46:17;16.50;99.90
23149;DHT22;11743;51.228;22.498;2022-08-01T01:46:41;16.50;99.90
23149;DHT22;11743;51.228;22.498;2022-08-01T01:47:04;16.40;99.90
23149;DHT22;11743;51.228;22.498;2022-08-01T01:47:29;16.50;99.90
23149;DHT22;11743;51.228;22.498;2022-08-01T01:47:53;16.50;99.90
23149;DHT22;11743;51.228;22.498;2022-08-01T01:48:18;16.50;99.90
23149;DHT22;11743;51.228;22.498;2022-08-01T01:48:40;16.50;99.90
23149;DHT22;11743;51.228;22.498;2022-08-01T01:49:05;16.50;99.90
23149;DHT22;11743;51.228;22.498;2022-08-01T01:49:32;16.50;99.90
23149;DHT22;11743;51.228;22.498;2022-08-01T01:49:55;16.50;99.90
23149;DHT22;11743;51.228;22.498;2022-08-01T01:50:21;16.50;99.90
23149;DHT22;11743;51.228;22.498;2022-08-01T01:50:45;16.50;99.90
23149;DHT22;11743;51.228;22.498;2022-08-01T01:51:07;16.50;99.90
23149;DHT22;11743;51.228;22.498;2022-08-01T01:51:30;16.50;99.90
23149;DHT22;11743;51.228;22.498;2022-08-01T01:51:54;16.50;99.90
23149;DHT22;11743;51.228;22.498;2022-08-01T01:52:24;16.50;99.90
23149;DHT22;11743;51.228;22.498;2022-08-01T01:52:48;16.50;99.90
23149;DHT22;11743;51.228;22.498;2022-08-01T01:53:12;16.50;99.90
23149;DHT22;11743;51.228;22.498;2022-08-01T01:53:36;16.50;99.90
23149;DHT22;11743;51.228;22.498;2022-08-01T01:53:59;16.50;99.90
23149;DHT22;11743;51.228;22.498;2022-08-01T01:54:25;16.50;99.90
23149;DHT22;11743;51.228;22.498;2022-08-01T01:54:50;16.50;99.90
23149;DHT22;11743;51.228;22.498;2022-08-01T01:55:13;16.50;99.90
23149;DHT22;11743;51.228;22.498;2022-08-01T01:55:39;16.50;99.90
23149;DHT22;11743;51.228;22.498;2022-08-01T01:56:11;16.50;99.90
23149;DHT22;11743;51.228;22.498;2022-08-01T01:56:37;16.50;99.90
23149;DHT22;11743;51.228;22.498;2022-08-01T01:57:12;16.50;99.90
23149;DHT22;11743;51.228;22.498;2022-08-01T01:57:39;16.50;99.90
23149;DHT22;11743;51.228;22.498;2022-08-01T01:58:01;16.50;99.90
23149;DHT22;11743;51.228;22.498;2022-08-01T01:58:24;16.50;99.90
23149;DHT22;11743;51.228;22.498;2022-08-01T01:58:51;16.50;99.90
23149;DHT22;11743;51.228;22.498;2022-08-01T01:59:18;16.50;99.90
23149;DHT22;11743;51.228;22.498;2022-08-01T01:59:47;16.50;99.90
23149;DHT22;11743;51.228;22.498;2022-08-01T02:00:12;16.50;99.90
23149;DHT22;11743;51.228;22.498;2022-08-01T02:00:36;16.50;99.90
23149;DHT22;11743;51.228;22.498;2022-08-01T02:01:00;16.50;99.90
23149;DHT22;11743;51.228;22.498;2022-08-01T02:01:27;16.50;99.90
23149;DHT22;11743;51.228;22.498;2022-08-01T02:02:11;16.50;99.90
23149;DHT22;11743;51.228;22.498;2022-08-01T02:02:36;16.50;99.90
23149;DHT22;11743;51.228;22.498;2022-08-01T02:03:00;16.50;99.90
23149;DHT22;11743;51.228;22.498;2022-08-01T02:03:23;16.50;99.90
23149;DHT22;11743;51.228;22.498;2022-08-01T02:03:48;16.50;99.90
23149;DHT22;11743;51.228;22.498;2022-08-01T02:04:11;16.50;99.90
23149;DHT22;11743;51.228;22.498;2022-08-01T02:04:36;16.50;99.90
23149;DHT22;11743;51.228;22.498;2022-08-01T02:05:00;16.50;99.90
23149;DHT22;11743;51.228;22.498;2022-08-01T02:05:24;16.50;99.90
23149;DHT22;11743;51.228;22.498;2022-08-01T02:05:48;16.50;99.90
23149;DHT22;11743;51.228;22.498;2022-08-01T02:06:13;16.50;99.90
23149;DHT22;11743;51.228;22.498;2022-08-01T02:06:37;16.50;99.90
23149;DHT22;11743;51.228;22.498;2022-08-01T02:07:01;16.50;99.90
23149;DHT22;11743;51.228;22.498;2022-08-01T02:07:25;16.50;99.90
23149;DHT22;11743;51.228;22.498;2022-08-01T02:07:48;16.50;99.90
23149;DHT22;11743;51.228;22.498;2022-08-01T02:08:20;16.50;99.90
23149;DHT22;11743;51.228;22.498;2022-08-01T02:08:45;16.50;99.90
23149;DHT22;11743;51.228;22.498;2022-08-01T02:09:08;16.50;99.90
23149;DHT22;11743;51.228;22.498;2022-08-01T02:09:32;16.50;99.90
23149;DHT22;11743;51.228;22.498;2022-08-01T02:09:56;16.50;99.90
23149;DHT22;11743;51.228;22.498;2022-08-01T02:10:19;16.50;99.90
23149;DHT22;11743;51.228;22.498;2022-08-01T02:10:51;16.50;99.90
23149;DHT22;11743;51.228;22.498;2022-08-01T02:11:32;16.50;99.90
23149;DHT22;11743;51.228;22.498;2022-08-01T02:11:55;16.50;99.90
23149;DHT22;11743;51.228;22.498;2022-08-01T02:12:33;16.50;99.90
23149;DHT22;11743;51.228;22.498;2022-08-01T02:12:58;16.40;99.90
23149;DHT22;11743;51.228;22.498;2022-08-01T02:13:21;16.40;99.90
23149;DHT22;11743;51.228;22.498;2022-08-01T02:13:45;16.40;99.90
23149;DHT22;11743;51.228;22.498;2022-08-01T02:14:09;16.40;99.90
23149;DHT22;11743;51.228;22.498;2022-08-01T02:14:34;16.40;99.90
23149;DHT22;11743;51.228;22.498;2022-08-01T02:14:59;16.50;99.90
23149;DHT22;11743;51.228;22.498;2022-08-01T02:15:23;16.40;99.90
23149;DHT22;11743;51.228;22.498;2022-08-01T02:15:45;16.40;99.90
23149;DHT22;11743;51.228;22.498;2022-08-01T02:16:24;16.40;99.90
23149;DHT22;11743;51.228;22.498;2022-08-01T02:16:50;16.40;99.90
23149;DHT22;11743;51.228;22.498;2022-08-01T02:17:17;16.40;99.90
23149;DHT22;11743;51.228;22.498;2022-08-01T02:17:43;16.40;99.90
23149;DHT22;11743;51.228;22.498;2022-08-01T02:18:06;16.40;99.90
23149;DHT22;11743;51.228;22.498;2022-08-01T02:18:28;16.40;99.90
23149;DHT22;11743;51.228;22.498;2022-08-01T02:18:51;16.40;99.90
23149;DHT22;11743;51.228;22.498;2022-08-01T02:19:13;16.40;99.90
23149;DHT22;11743;51.228;22.498;2022-08-01T02:19:36;16.40;99.90
23149;DHT22;11743;51.228;22.498;2022-08-01T02:19:59;16.40;99.90
23149;DHT22;11743;51.228;22.498;2022-08-01T02:20:21;16.40;99.90
23149;DHT22;11743;51.228;22.498;2022-08-01T02:20:43;16.40;99.90
23149;DHT22;11743;51.228;22.498;2022-08-01T02:21:18;16.40;99.90
23149;DHT22;11743;51.228;22.498;2022-08-01T02:22:00;16.40;99.90
23149;DHT22;11743;51.228;22.498;2022-08-01T02:22:33;16.40;99.90
23149;DHT22;11743;51.228;22.498;2022-08-01T02:23:11;16.40;99.90
23149;DHT22;11743;51.228;22.498;2022-08-01T02:23:35;16.40;99.90
23149;DHT22;11743;51.228;22.498;2022-08-01T02:24:49;16.40;99.90
23149;DHT22;11743;51.228;22.498;2022-08-01T02:25:27;16.40;99.90
23149;DHT22;11743;51.228;22.498;2022-08-01T02:25:53;16.40;99.90
23149;DHT22;11743;51.228;22.498;2022-08-01T02:26:33;16.40;99.90
23149;DHT22;11743;51.228;22.498;2022-08-01T02:26:58;16.40;99.90
23149;DHT22;11743;51.228;22.498;2022-08-01T02:27:28;16.40;99.90
23149;DHT22;11743;51.228;22.498;2022-08-01T02:28:15;16.40;99.90
23149;DHT22;11743;51.228;22.498;2022-08-01T02:28:52;16.40;99.90
23149;DHT22;11743;51.228;22.498;2022-08-01T02:29:24;16.40;99.90
23149;DHT22;11743;51.228;22.498;2022-08-01T02:30:15;16.40;99.90
23149;DHT22;11743;51.228;22.498;2022-08-01T02:30:39;16.40;99.90
23149;DHT22;11743;51.228;22.498;2022-08-01T02:31:08;16.40;99.90
23149;DHT22;11743;51.228;22.498;2022-08-01T02:31:35;16.40;99.90
23149;DHT22;11743;51.228;22.498;2022-08-01T02:32:00;16.40;99.90
23149;DHT22;11743;51.228;22.498;2022-08-01T02:32:30;16.40;99.90
23149;DHT22;11743;51.228;22.498;2022-08-01T02:33:05;16.40;99.90
23149;DHT22;11743;51.228;22.498;2022-08-01T02:33:43;16.40;99.90
23149;DHT22;11743;51.228;22.498;2022-08-01T02:34:09;16.40;99.90
23149;DHT22;11743;51.228;22.498;2022-08-01T02:34:32;16.40;99.90
23149;DHT22;11743;51.228;22.498;2022-08-01T02:34:56;16.40;99.90
23149;DHT22;11743;51.228;22.498;2022-08-01T02:35:25;16.40;99.90
23149;DHT22;11743;51.228;22.498;2022-08-01T02:35:52;16.40;99.90
23149;DHT22;11743;51.228;22.498;2022-08-01T02:36:36;16.40;99.90
23149;DHT22;11743;51.228;22.498;2022-08-01T02:37:00;16.40;99.90
23149;DHT22;11743;51.228;22.498;2022-08-01T02:37:23;16.40;99.90
23149;DHT22;11743;51.228;22.498;2022-08-01T02:37:48;16.40;99.90
23149;DHT22;11743;51.228;22.498;2022-08-01T02:38:12;16.40;99.90
23149;DHT22;11743;51.228;22.498;2022-08-01T02:38:44;16.40;99.90
23149;DHT22;11743;51.228;22.498;2022-08-01T02:39:09;16.40;99.90
23149;DHT22;11743;51.228;22.498;2022-08-01T02:39:36;16.40;99.90
23149;DHT22;11743;51.228;22.498;2022-08-01T02:39:59;16.40;99.90
23149;DHT22;11743;51.228;22.498;2022-08-01T02:40:24;16.40;99.90
23149;DHT22;11743;51.228;22.498;2022-08-01T02:40:50;16.30;99.90
23149;DHT22;11743;51.228;22.498;2022-08-01T02:41:21;16.30;99.90
23149;DHT22;11743;51.228;22.498;2022-08-01T02:41:48;16.30;99.90
23149;DHT22;11743;51.228;22.498;2022-08-01T02:42:11;16.30;99.90
23149;DHT22;11743;51.228;22.498;2022-08-01T02:42:36;16.40;99.90
23149;DHT22;11743;51.228;22.498;2022-08-01T02:43:01;16.40;99.90
23149;DHT22;11743;51.228;22.498;2022-08-01T02:43:26;16.40;99.90
23149;DHT22;11743;51.228;22.498;2022-08-01T02:43:51;16.30;99.90
23149;DHT22;11743;51.228;22.498;2022-08-01T02:44:24;16.30;99.90
23149;DHT22;11743;51.228;22.498;2022-08-01T02:44:49;16.30;99.90
23149;DHT22;11743;51.228;22.498;2022-08-01T02:45:12;16.30;99.90
23149;DHT22;11743;51.228;22.498;2022-08-01T02:45:39;16.30;99.90
23149;DHT22;11743;51.228;22.498;2022-08-01T02:46:04;16.30;99.90
23149;DHT22;11743;51.228;22.498;2022-08-01T02:46:37;16.30;99.90
23149;DHT22;11743;51.228;22.498;2022-08-01T02:47:01;16.30;99.90
23149;DHT22;11743;51.228;22.498;2022-08-01T02:47:27;16.30;99.90
23149;DHT22;11743;51.228;22.498;2022-08-01T02:47:52;16.20;99.90
23149;DHT22;11743;51.228;22.498;2022-08-01T02:48:17;16.30;99.90
23149;DHT22;11743;51.228;22.498;2022-08-01T02:48:40;16.30;99.90
23149;DHT22;11743;51.228;22.498;2022-08-01T02:49:06;16.30;99.90
23149;DHT22;11743;51.228;22.498;2022-08-01T02:49:39;16.30;99.90